createdAt,value
2023-05-03T00:01:46.504Z,50.63
2023-05-03T00:04:14.878Z,50.59
2023-05-03T00:06:43.847Z,50.37
2023-05-03T00:09:10.770Z,50.17
2023-05-03T00:11:37.764Z,50.43
2023-05-03T00:14:04.528Z,50.25
2023-05-03T00:16:31.246Z,50.13
2023-05-03T00:18:58.079Z,50.60
2023-05-03T00:21:24.894Z,50.48
2023-05-03T00:23:51.637Z,50.65
2023-05-03T00:26:18.398Z,50.36
2023-05-03T00:28:45.548Z,50.62
2023-05-03T00:31:12.245Z,50.87
2023-05-03T00:33:39.880Z,50.59
2023-05-03T00:36:10.781Z,50.70
2023-05-03T00:38:38.065Z,50.21
2023-05-03T00:41:05.041Z,50.64
2023-05-03T00:43:34.374Z,50.81
2023-05-03T00:46:15.227Z,50.98
2023-05-03T00:48:43.966Z,51.31
2023-05-03T00:51:14.332Z,51.30
2023-05-03T00:53:42.616Z,50.84
2023-05-03T00:56:09.393Z,51.35
2023-05-03T00:58:40.508Z,50.96
2023-05-03T01:01:08.653Z,51.15
2023-05-03T01:03:41.703Z,51.11
2023-05-03T01:06:21.779Z,51.23
2023-05-03T01:09:00.358Z,51.62
2023-05-03T01:11:36.808Z,51.55
2023-05-03T01:14:20.731Z,51.06
2023-05-03T01:16:51.773Z,51.25
2023-05-03T01:19:40.271Z,51.87
2023-05-03T01:22:17.789Z,51.50
2023-05-03T01:24:55.661Z,51.33
2023-05-03T01:27:23.912Z,51.60
2023-05-03T01:29:51.406Z,51.72
2023-05-03T01:32:26.796Z,52.25
2023-05-03T01:35:15.898Z,51.98
2023-05-03T01:37:43.169Z,52.09
2023-05-03T01:40:11.749Z,52.31
2023-05-03T01:42:39.280Z,52.42
2023-05-03T01:45:07.257Z,52.57
2023-05-03T01:47:34.047Z,52.50
2023-05-03T01:50:01.058Z,52.49
2023-05-03T01:52:28.061Z,52.48
2023-05-03T01:54:54.770Z,52.83
2023-05-03T01:57:21.377Z,52.92
2023-05-03T01:59:48.159Z,53.08
2023-05-03T02:02:15.146Z,53.42
2023-05-03T02:04:41.951Z,53.14
2023-05-03T02:07:09.287Z,53.01
2023-05-03T02:09:36.206Z,53.13
2023-05-03T02:12:02.916Z,53.34
2023-05-03T02:14:29.650Z,53.30
2023-05-03T02:16:56.333Z,53.10
2023-05-03T02:19:23.056Z,53.56
2023-05-03T02:21:49.714Z,53.50
2023-05-03T02:24:16.613Z,53.44
2023-05-03T02:26:43.255Z,53.73
2023-05-03T02:29:10.365Z,53.68
2023-05-03T02:31:37.100Z,53.88
2023-05-03T02:34:04.417Z,54.26
2023-05-03T02:36:31.125Z,54.10
2023-05-03T02:39:00.724Z,53.88
2023-05-03T02:41:28.612Z,54.29
2023-05-03T02:43:55.260Z,53.91
2023-05-03T02:46:23.429Z,54.21
2023-05-03T02:48:50.193Z,53.92
2023-05-03T02:51:16.845Z,54.15
2023-05-03T02:53:43.558Z,54.29
2023-05-03T02:56:10.325Z,53.92
2023-05-03T02:58:37.050Z,54.12
2023-05-03T03:01:04.821Z,53.91
2023-05-03T03:03:31.655Z,53.61
2023-05-03T03:05:58.446Z,53.97
2023-05-03T03:08:25.314Z,54.43
2023-05-03T03:10:52.634Z,54.16
2023-05-03T03:13:19.436Z,54.41
2023-05-03T03:15:46.365Z,54.28
2023-05-03T03:18:13.201Z,54.35
2023-05-03T03:20:39.891Z,54.60
2023-05-03T03:23:07.169Z,54.54
2023-05-03T03:25:33.982Z,54.52
2023-05-03T03:28:00.769Z,54.45
2023-05-03T03:30:28.235Z,54.74
2023-05-03T03:33:11.521Z,54.93
2023-05-03T03:35:41.249Z,54.96
2023-05-03T03:38:08.699Z,54.74
2023-05-03T03:40:39.906Z,55.21
2023-05-03T03:43:06.634Z,55.09
2023-05-03T03:45:33.398Z,55.10
2023-05-03T03:48:00.715Z,55.01
2023-05-03T03:50:27.679Z,55.05
2023-05-03T03:52:54.301Z,54.71
2023-05-03T03:55:21.073Z,54.88
2023-05-03T03:57:49.656Z,54.92
2023-05-03T04:00:16.755Z,54.91
2023-05-03T04:02:49.665Z,54.80
2023-05-03T04:05:18.373Z,55.05
2023-05-03T04:07:46.095Z,55.29
2023-05-03T04:10:14.586Z,55.15
2023-05-03T04:12:41.524Z,55.07
2023-05-03T04:15:08.966Z,54.95
2023-05-03T04:17:37.458Z,54.92
2023-05-03T04:20:10.824Z,54.65
2023-05-03T04:22:40.389Z,54.59
2023-05-03T04:25:17.103Z,54.43
2023-05-03T04:27:48.752Z,54.72
2023-05-03T04:30:17.482Z,54.40
2023-05-03T04:32:48.121Z,54.53
2023-05-03T04:35:15.679Z,54.70
2023-05-03T04:37:46.762Z,54.35
2023-05-03T04:40:19.622Z,54.12
2023-05-03T04:42:52.027Z,54.14
2023-05-03T04:45:20.763Z,53.67
2023-05-03T04:47:48.220Z,53.67
2023-05-03T04:50:15.138Z,53.64
2023-05-03T04:52:44.645Z,53.66
2023-05-03T04:55:12.496Z,53.15
2023-05-03T04:57:39.130Z,53.35
2023-05-03T05:00:11.826Z,53.10
2023-05-03T05:02:43.715Z,52.88
2023-05-03T05:05:11.341Z,52.74
2023-05-03T05:07:38.100Z,51.97
2023-05-03T05:10:05.635Z,51.90
2023-05-03T05:12:32.633Z,51.23
2023-05-03T05:15:02.467Z,50.37
2023-05-03T05:17:29.307Z,50.32
2023-05-03T05:19:56.326Z,49.08
2023-05-03T05:22:22.933Z,48.11
2023-05-03T05:24:54.975Z,47.92
2023-05-03T05:27:23.790Z,47.47
2023-05-03T05:29:52.533Z,46.28
2023-05-03T05:32:20.042Z,45.94
2023-05-03T05:34:52.870Z,45.47
2023-05-03T05:37:25.042Z,44.98
2023-05-03T05:39:53.774Z,44.22
2023-05-03T05:42:22.598Z,44.39
2023-05-03T05:44:50.035Z,44.19
2023-05-03T05:47:16.951Z,43.69
2023-05-03T05:49:45.208Z,42.94
2023-05-03T05:52:12.420Z,42.60
2023-05-03T05:54:39.808Z,42.23
2023-05-03T05:57:06.860Z,41.84
2023-05-03T05:59:34.409Z,41.10
2023-05-03T06:02:01.195Z,40.54
2023-05-03T06:04:28.887Z,40.00
2023-05-03T06:06:56.767Z,39.54
2023-05-03T06:09:24.984Z,39.16
2023-05-03T06:11:55.377Z,38.93
2023-05-03T06:14:22.038Z,39.08
2023-05-03T06:16:50.744Z,38.43
2023-05-03T06:19:17.567Z,37.96
2023-05-03T06:21:44.225Z,37.99
2023-05-03T06:24:10.933Z,37.71
2023-05-03T06:26:38.583Z,37.23
2023-05-03T06:29:05.849Z,36.50
2023-05-03T06:31:32.531Z,36.42
2023-05-03T06:33:59.582Z,35.78
2023-05-03T06:36:27.652Z,35.27
2023-05-03T06:38:55.825Z,36.63
2023-05-03T06:41:22.444Z,35.85
2023-05-03T06:43:49.118Z,35.25
2023-05-03T06:46:18.262Z,35.37
2023-05-03T06:48:46.447Z,35.16
2023-05-03T06:51:13.157Z,35.54
2023-05-03T06:53:39.752Z,35.98
2023-05-03T06:56:06.769Z,35.84
2023-05-03T06:58:33.395Z,36.12
2023-05-03T07:01:00.065Z,35.05
2023-05-03T07:03:26.836Z,34.22
2023-05-03T07:05:53.629Z,34.62
2023-05-03T07:08:20.292Z,35.79
2023-05-03T07:10:46.899Z,35.33
2023-05-03T07:13:14.269Z,34.87
2023-05-03T07:15:41.108Z,34.47
2023-05-03T07:18:08.311Z,34.64
2023-05-03T07:20:34.988Z,34.81
2023-05-03T07:23:01.785Z,34.35
2023-05-03T07:25:28.539Z,34.14
2023-05-03T07:27:55.277Z,34.73
2023-05-03T07:30:22.305Z,34.96
2023-05-03T07:32:50.637Z,34.93
2023-05-03T07:35:17.314Z,34.46
2023-05-03T07:37:44.765Z,33.98
2023-05-03T07:40:12.291Z,33.83
2023-05-03T07:42:38.998Z,33.20
2023-05-03T07:45:06.435Z,33.54
2023-05-03T07:47:35.317Z,33.01
2023-05-03T07:50:02.288Z,32.68
2023-05-03T07:52:39.401Z,32.31
2023-05-03T07:55:07.221Z,31.48
2023-05-03T07:57:33.874Z,31.29
2023-05-03T08:00:00.905Z,31.22
2023-05-03T08:02:28.253Z,30.86
2023-05-03T08:04:55.272Z,30.69
2023-05-03T08:07:22.122Z,30.74
2023-05-03T08:09:49.400Z,31.00
2023-05-03T08:12:16.043Z,30.40
2023-05-03T08:14:42.868Z,30.83
2023-05-03T08:17:09.666Z,31.15
2023-05-03T08:19:36.582Z,30.27
2023-05-03T08:22:03.405Z,29.76
2023-05-03T08:24:30.305Z,28.82
2023-05-03T08:26:56.968Z,28.30
2023-05-03T08:29:24.083Z,26.40
2023-05-03T08:31:51.856Z,27.38
2023-05-03T08:34:18.683Z,27.36
2023-05-03T08:36:45.509Z,26.89
2023-05-03T08:39:12.145Z,25.28
2023-05-03T08:41:39.634Z,25.29
2023-05-03T08:44:08.380Z,24.84
2023-05-03T08:46:37.223Z,24.04
2023-05-03T08:49:06.673Z,23.41
2023-05-03T08:51:34.269Z,22.69
2023-05-03T08:54:01.086Z,21.55
2023-05-03T08:56:34.601Z,21.92
2023-05-03T08:59:07.452Z,22.21
2023-05-03T09:01:37.192Z,20.69
2023-05-03T09:04:04.641Z,20.86
2023-05-03T09:06:33.171Z,20.38
2023-05-03T09:09:00.851Z,19.08
2023-05-03T09:11:30.273Z,19.68
2023-05-03T09:14:12.222Z,19.53
2023-05-03T09:16:40.727Z,19.82
2023-05-03T09:19:11.518Z,19.08
2023-05-03T09:21:39.369Z,19.24
2023-05-03T09:24:21.080Z,18.65
2023-05-03T09:26:51.918Z,18.74
2023-05-03T09:29:34.510Z,18.37
2023-05-03T09:32:05.447Z,18.71
2023-05-03T09:34:33.382Z,19.08
2023-05-03T09:37:00.051Z,18.74
2023-05-03T09:39:27.514Z,19.31
2023-05-03T09:41:54.400Z,19.07
2023-05-03T09:44:41.270Z,17.53
2023-05-03T09:47:08.388Z,17.30
2023-05-03T09:49:39.376Z,18.20
2023-05-03T09:52:07.779Z,17.41
2023-05-03T09:54:38.125Z,17.71
2023-05-03T09:57:06.519Z,18.10
2023-05-03T09:59:38.779Z,18.49
2023-05-03T10:02:07.495Z,18.04
2023-05-03T10:04:47.526Z,16.81
2023-05-03T10:07:18.624Z,17.13
2023-05-03T10:09:47.847Z,16.91
2023-05-03T10:12:17.460Z,15.56
2023-05-03T10:14:48.680Z,16.41
2023-05-03T10:17:46.096Z,16.06
2023-05-03T10:20:27.173Z,16.74
2023-05-03T10:23:11.950Z,16.57
2023-05-03T10:25:41.051Z,17.34
2023-05-03T10:28:09.490Z,16.35
2023-05-03T10:30:36.258Z,17.03
2023-05-03T10:33:17.783Z,15.94
2023-05-03T10:35:54.404Z,16.26
2023-05-03T10:38:23.004Z,15.59
2023-05-03T10:40:50.585Z,16.58
2023-05-03T10:43:29.554Z,16.26
2023-05-03T10:45:57.376Z,16.23
2023-05-03T10:48:24.396Z,16.63
2023-05-03T10:50:52.625Z,16.16
2023-05-03T10:53:31.920Z,15.80
2023-05-03T10:56:10.140Z,16.36
2023-05-03T10:58:38.093Z,16.82
2023-05-03T11:01:06.824Z,16.68
2023-05-03T11:03:55.979Z,16.42
2023-05-03T11:06:37.134Z,17.46
2023-05-03T11:09:06.624Z,16.45
2023-05-03T11:11:35.181Z,15.39
2023-05-03T11:14:01.966Z,17.31
2023-05-03T11:16:32.297Z,16.84
2023-05-03T11:19:00.323Z,17.06
2023-05-03T11:21:27.649Z,16.96
2023-05-03T11:23:54.408Z,16.77
2023-05-03T11:26:25.911Z,17.10
2023-05-03T11:28:54.044Z,18.55
2023-05-03T11:31:21.621Z,18.26
2023-05-03T11:33:49.464Z,18.61
2023-05-03T11:36:16.222Z,16.76
2023-05-03T11:38:42.941Z,15.56
2023-05-03T11:41:19.027Z,16.18
2023-05-03T11:43:47.810Z,15.40
2023-05-03T11:46:26.492Z,16.79
2023-05-03T11:48:53.452Z,17.46
2023-05-03T11:51:23.870Z,16.80
2023-05-03T11:53:51.391Z,17.71
2023-05-03T11:56:20.296Z,16.87
2023-05-03T11:58:58.354Z,17.52
2023-05-03T12:01:27.143Z,17.50
2023-05-03T12:03:58.772Z,17.05
2023-05-03T12:06:32.195Z,16.64
2023-05-03T12:09:03.493Z,15.28
2023-05-03T12:11:32.911Z,18.78
2023-05-03T12:14:03.133Z,19.97
2023-05-03T12:16:50.989Z,21.58
2023-05-03T12:19:26.071Z,22.53
2023-05-03T12:22:04.490Z,23.07
2023-05-03T12:24:39.879Z,24.16
2023-05-03T12:27:08.624Z,24.40
2023-05-03T12:29:35.848Z,25.92
2023-05-03T12:32:03.721Z,23.33
2023-05-03T12:34:35.682Z,23.67
2023-05-03T12:37:05.614Z,25.34
2023-05-03T12:39:34.095Z,25.96
2023-05-03T12:44:35.039Z,23.93
2023-05-03T12:47:02.912Z,24.04
2023-05-03T12:49:30.290Z,24.46
2023-05-03T12:52:24.102Z,23.02
2023-05-03T12:55:02.709Z,25.95
2023-05-03T12:57:31.258Z,25.73
2023-05-03T13:00:03.344Z,27.16
2023-05-03T13:05:09.722Z,26.05
2023-05-03T13:07:42.921Z,26.64
2023-05-03T13:12:40.714Z,27.11
2023-05-03T13:15:08.284Z,27.71
2023-05-03T13:17:35.216Z,27.88
2023-05-03T13:20:01.942Z,28.13
2023-05-03T13:22:30.098Z,26.89
2023-05-03T13:24:56.778Z,27.36
2023-05-03T13:27:23.487Z,27.09
2023-05-03T13:29:50.217Z,27.26
2023-05-03T13:32:17.227Z,27.16
2023-05-03T13:34:44.293Z,27.63
2023-05-03T13:37:11.790Z,27.30
2023-05-03T13:39:38.650Z,24.36
2023-05-03T13:42:06.276Z,24.81
2023-05-03T13:44:32.977Z,27.50
2023-05-03T13:46:59.609Z,28.86
2023-05-03T13:49:26.346Z,28.70
2023-05-03T13:51:53.015Z,28.26
2023-05-03T13:54:20.193Z,27.93
2023-05-03T13:56:47.286Z,26.09
2023-05-03T13:59:14.112Z,28.19
2023-05-03T14:01:42.998Z,28.51
2023-05-03T14:04:10.223Z,28.34
2023-05-03T14:06:39.412Z,26.98
2023-05-03T14:09:07.842Z,27.30
2023-05-03T14:11:34.633Z,27.89
2023-05-03T14:14:01.699Z,28.23
2023-05-03T14:18:58.347Z,26.53
2023-05-03T14:21:25.178Z,27.12
2023-05-03T14:23:52.971Z,28.28
2023-05-03T14:26:20.484Z,28.20
2023-05-03T14:28:47.173Z,27.55
2023-05-03T14:31:13.875Z,29.04
2023-05-03T14:33:40.537Z,28.31
2023-05-03T14:36:08.719Z,26.76
2023-05-03T14:38:37.141Z,27.42
2023-05-03T14:41:04.086Z,27.36
2023-05-03T14:43:31.408Z,28.05
2023-05-03T14:45:58.000Z,27.64
2023-05-03T14:48:24.812Z,27.64
2023-05-03T14:50:51.612Z,28.01
2023-05-03T14:53:18.279Z,28.22
2023-05-03T14:55:46.039Z,28.21
2023-05-03T14:58:16.101Z,27.89
2023-05-03T15:00:43.370Z,28.73
2023-05-03T15:03:12.041Z,29.21
2023-05-03T15:05:45.355Z,29.30
2023-05-03T15:08:15.159Z,29.44
2023-05-03T15:10:44.256Z,29.14
2023-05-03T15:13:12.258Z,30.33
2023-05-03T15:15:40.509Z,29.61
2023-05-03T15:18:08.594Z,28.71
2023-05-03T15:20:35.984Z,28.94
2023-05-03T15:23:04.180Z,29.53
2023-05-03T15:25:31.485Z,30.04
2023-05-03T15:27:59.997Z,28.81
2023-05-03T15:30:28.846Z,28.44
2023-05-03T15:32:55.663Z,28.80
2023-05-03T15:35:22.472Z,29.12
2023-05-03T15:37:49.532Z,29.46
2023-05-03T15:40:16.675Z,29.03
2023-05-03T15:42:43.744Z,29.22
2023-05-03T15:45:10.803Z,29.83
2023-05-03T15:47:37.494Z,29.36
2023-05-03T15:50:06.377Z,29.63
2023-05-03T15:52:34.736Z,29.23
2023-05-03T15:55:01.461Z,29.48
2023-05-03T15:57:29.645Z,29.52
2023-05-03T15:59:57.063Z,29.13
2023-05-03T16:02:23.943Z,28.81
2023-05-03T16:04:50.930Z,28.80
2023-05-03T16:07:17.935Z,28.70
2023-05-03T16:09:44.755Z,28.87
2023-05-03T16:12:11.737Z,28.81
2023-05-03T16:14:38.422Z,29.19
2023-05-03T16:17:05.147Z,29.20
2023-05-03T16:19:32.117Z,28.93
2023-05-03T16:21:58.984Z,28.71
2023-05-03T16:24:25.866Z,28.34
2023-05-03T16:26:52.975Z,29.09
2023-05-03T16:29:19.990Z,29.19
2023-05-03T16:31:46.958Z,29.02
2023-05-03T16:34:14.217Z,28.95
2023-05-03T16:36:43.087Z,29.43
2023-05-03T16:39:11.669Z,29.43
2023-05-03T16:41:38.907Z,29.12
2023-05-03T16:44:07.129Z,29.05
2023-05-03T16:46:39.569Z,29.05
2023-05-03T16:49:06.388Z,29.02
2023-05-03T16:51:33.749Z,29.31
2023-05-03T16:54:03.789Z,29.49
2023-05-03T16:56:31.317Z,30.00
2023-05-03T16:58:59.200Z,29.60
2023-05-03T17:01:26.401Z,29.91
2023-05-03T17:03:53.501Z,29.92
2023-05-03T17:06:20.505Z,29.16
2023-05-03T17:08:47.269Z,28.27
2023-05-03T17:11:14.816Z,29.07
2023-05-03T17:13:42.037Z,29.18
2023-05-03T17:16:10.780Z,28.94
2023-05-03T17:18:38.796Z,29.19
2023-05-03T17:21:06.641Z,28.44
2023-05-03T17:23:35.923Z,28.26
2023-05-03T17:26:07.012Z,28.82
2023-05-03T17:28:33.967Z,29.36
2023-05-03T17:31:02.309Z,29.49
2023-05-03T17:33:29.221Z,29.70
2023-05-03T17:35:55.897Z,30.31
2023-05-03T17:38:23.478Z,30.71
2023-05-03T17:40:50.681Z,30.23
2023-05-03T17:43:17.798Z,29.81
2023-05-03T17:45:47.358Z,29.24
2023-05-03T17:48:14.520Z,29.35
2023-05-03T17:50:43.004Z,29.43
2023-05-03T17:53:09.790Z,29.75
2023-05-03T17:55:38.308Z,29.01
2023-05-03T17:58:06.177Z,29.50
2023-05-03T18:00:33.855Z,29.05
2023-05-03T18:03:01.286Z,29.12
2023-05-03T18:05:28.382Z,28.97
2023-05-03T18:07:55.093Z,29.46
2023-05-03T18:10:22.329Z,29.31
2023-05-03T18:12:49.280Z,29.15
2023-05-03T18:15:16.312Z,29.23
2023-05-03T18:17:43.532Z,29.22
2023-05-03T18:20:10.860Z,29.12
2023-05-03T18:22:37.853Z,29.65
2023-05-03T18:25:07.527Z,29.44
2023-05-03T18:27:37.277Z,30.26
2023-05-03T18:30:06.746Z,31.00
2023-05-03T18:32:34.805Z,30.77
2023-05-03T18:35:02.440Z,31.08
2023-05-03T18:37:29.711Z,31.52
2023-05-03T18:39:56.433Z,31.70
2023-05-03T18:42:23.170Z,32.27
2023-05-03T18:44:49.860Z,32.38
2023-05-03T18:47:20.640Z,32.94
2023-05-03T18:49:52.713Z,33.25
2023-05-03T18:52:20.455Z,33.83
2023-05-03T18:54:47.469Z,34.26
2023-05-03T18:57:14.199Z,34.91
2023-05-03T18:59:52.583Z,35.21
2023-05-03T19:02:25.330Z,35.33
2023-05-03T19:04:52.658Z,35.90
2023-05-03T19:07:19.510Z,35.95
2023-05-03T19:09:46.206Z,36.15
2023-05-03T19:12:13.506Z,36.25
2023-05-03T19:14:42.920Z,36.53
2023-05-03T19:17:09.836Z,36.56
2023-05-03T19:19:36.818Z,36.91
2023-05-03T19:22:03.714Z,37.10
2023-05-03T19:24:30.493Z,37.12
2023-05-03T19:26:57.298Z,37.27
2023-05-03T19:29:23.953Z,37.51
2023-05-03T19:31:50.694Z,37.61
2023-05-03T19:34:17.685Z,38.08
2023-05-03T19:36:44.276Z,38.36
2023-05-03T19:39:11.395Z,38.57
2023-05-03T19:41:38.732Z,38.43
2023-05-03T19:44:06.025Z,38.65
2023-05-03T19:46:33.778Z,38.74
2023-05-03T19:49:01.345Z,38.68
2023-05-03T19:51:28.184Z,38.63
2023-05-03T19:53:55.258Z,39.01
2023-05-03T19:56:22.170Z,39.05
2023-05-03T19:58:50.688Z,39.01
2023-05-03T20:01:17.672Z,38.91
2023-05-03T20:03:44.620Z,39.30
2023-05-03T20:06:11.436Z,39.36
2023-05-03T20:08:38.033Z,39.57
2023-05-03T20:11:04.747Z,39.34
2023-05-03T20:13:31.683Z,39.13
2023-05-03T20:15:58.391Z,39.81
2023-05-03T20:18:25.187Z,39.43
2023-05-03T20:20:51.784Z,39.08
2023-05-03T20:23:18.492Z,39.40
2023-05-03T20:25:45.147Z,39.27
2023-05-03T20:28:12.908Z,39.46
2023-05-03T20:30:39.568Z,39.44
2023-05-03T20:33:06.304Z,39.61
2023-05-03T20:35:32.984Z,39.71
2023-05-03T20:37:59.566Z,39.22
2023-05-03T20:40:26.248Z,39.37
2023-05-03T20:42:52.872Z,39.49
2023-05-03T20:45:19.585Z,39.64
2023-05-03T20:47:46.316Z,39.73
2023-05-03T20:50:13.029Z,39.74
2023-05-03T20:52:39.711Z,39.84
2023-05-03T20:55:07.199Z,39.75
2023-05-03T20:57:33.975Z,39.96
2023-05-03T21:00:02.257Z,39.92
2023-05-03T21:02:29.156Z,39.83
2023-05-03T21:04:55.855Z,39.73
2023-05-03T21:07:22.575Z,39.79
2023-05-03T21:09:49.303Z,39.77
2023-05-03T21:12:16.012Z,39.57
2023-05-03T21:14:42.669Z,39.75
2023-05-03T21:17:12.095Z,40.29
2023-05-03T21:19:39.611Z,40.45
2023-05-03T21:22:09.533Z,40.10
2023-05-03T21:24:36.351Z,40.27
2023-05-03T21:27:03.404Z,40.04
2023-05-03T21:29:30.006Z,40.42
2023-05-03T21:31:56.971Z,40.67
2023-05-03T21:34:23.666Z,40.85
2023-05-03T21:36:50.554Z,41.10
2023-05-03T21:39:17.272Z,40.64
2023-05-03T21:41:43.939Z,41.26
2023-05-03T21:44:10.631Z,40.84
2023-05-03T21:46:37.378Z,41.35
2023-05-03T21:49:04.016Z,41.50
2023-05-03T21:51:31.185Z,41.76
2023-05-03T21:53:57.855Z,41.40
2023-05-03T21:56:24.531Z,41.41
2023-05-03T21:58:51.247Z,41.56
2023-05-03T22:01:19.948Z,41.58
2023-05-03T22:03:48.611Z,41.73
2023-05-03T22:06:18.350Z,41.81
2023-05-03T22:08:45.049Z,41.68
2023-05-03T22:11:12.471Z,41.85
2023-05-03T22:13:49.622Z,42.12
2023-05-03T22:16:18.329Z,41.98
2023-05-03T22:18:45.065Z,42.28
2023-05-03T22:21:11.721Z,42.27
2023-05-03T22:23:38.479Z,42.44
2023-05-03T22:26:05.123Z,42.46
2023-05-03T22:28:31.792Z,42.21
2023-05-03T22:30:58.511Z,42.23
2023-05-03T22:33:25.331Z,42.45
2023-05-03T22:35:52.301Z,42.50
2023-05-03T22:38:20.040Z,42.50
2023-05-03T22:40:46.931Z,42.47
2023-05-03T22:43:13.601Z,42.30
2023-05-03T22:45:40.287Z,42.23
2023-05-03T22:48:07.065Z,42.40
2023-05-03T22:50:33.710Z,42.53
2023-05-03T22:53:00.400Z,42.78
2023-05-03T22:55:27.066Z,43.09
2023-05-03T22:57:53.816Z,42.80
2023-05-03T23:00:21.619Z,43.09
2023-05-03T23:05:15.718Z,43.04
2023-05-03T23:07:43.194Z,42.94
2023-05-03T23:10:10.176Z,43.05
2023-05-03T23:12:37.134Z,43.42
2023-05-03T23:15:04.242Z,43.59
2023-05-03T23:17:31.503Z,43.16
2023-05-03T23:19:58.273Z,43.47
2023-05-03T23:22:24.885Z,43.65
2023-05-03T23:24:51.521Z,43.90
2023-05-03T23:27:18.166Z,43.92
2023-05-03T23:29:47.183Z,43.97
2023-05-03T23:32:14.402Z,44.14
2023-05-03T23:34:41.869Z,44.21
2023-05-03T23:37:08.505Z,44.16
2023-05-03T23:39:35.263Z,44.47
2023-05-03T23:42:02.104Z,44.02
2023-05-03T23:44:38.679Z,44.07
2023-05-03T23:47:15.418Z,44.18
2023-05-03T23:49:42.023Z,44.32
2023-05-03T23:52:09.734Z,44.70
2023-05-03T23:54:36.495Z,44.71
2023-05-03T23:57:03.145Z,44.61
2023-05-03T23:59:29.852Z,44.72
